createdAt,value
2022-12-29T00:01:45.521Z,9.37
2022-12-29T00:04:18.651Z,9.38
2022-12-29T00:06:45.607Z,9.37
2022-12-29T00:09:13.719Z,9.37
2022-12-29T00:11:40.928Z,9.36
2022-12-29T00:14:28.858Z,9.35
2022-12-29T00:16:55.852Z,9.34
2022-12-29T00:19:41.807Z,9.31
2022-12-29T00:22:30.675Z,9.31
2022-12-29T00:25:16.370Z,9.32
2022-12-29T00:28:07.463Z,9.34
2022-12-29T00:30:55.253Z,9.36
2022-12-29T00:33:44.873Z,9.39
2022-12-29T00:36:23.001Z,9.42
2022-12-29T00:39:13.119Z,9.43
2022-12-29T00:42:08.880Z,9.45
2022-12-29T00:44:35.608Z,9.42
2022-12-29T00:47:05.532Z,9.38
2022-12-29T00:49:33.233Z,9.29
2022-12-29T00:52:10.066Z,9.24
2022-12-29T00:54:39.676Z,9.20
2022-12-29T00:57:08.642Z,9.14
2022-12-29T00:59:39.811Z,9.08
2022-12-29T01:02:07.347Z,9.07
2022-12-29T01:04:34.337Z,9.06
2022-12-29T01:07:01.350Z,9.06
2022-12-29T01:09:46.751Z,9.06
2022-12-29T01:12:13.779Z,9.04
2022-12-29T01:14:41.629Z,9.03
2022-12-29T01:17:08.299Z,9.01
2022-12-29T01:19:35.028Z,9.04
2022-12-29T01:22:02.108Z,9.05
2022-12-29T01:24:29.088Z,9.07
2022-12-29T01:26:55.926Z,9.11
2022-12-29T01:29:23.388Z,9.13
2022-12-29T01:31:51.087Z,9.15
2022-12-29T01:34:18.891Z,9.16
2022-12-29T01:36:45.830Z,9.17
2022-12-29T01:39:13.378Z,9.16
2022-12-29T01:41:41.241Z,9.13
2022-12-29T01:44:42.222Z,9.11
2022-12-29T01:47:09.509Z,9.07
2022-12-29T01:49:36.753Z,9.09
2022-12-29T01:52:08.161Z,9.12
2022-12-29T01:54:43.896Z,9.15
2022-12-29T01:57:19.732Z,9.18
2022-12-29T02:00:08.835Z,9.20
2022-12-29T02:02:51.711Z,9.22
2022-12-29T02:05:26.001Z,9.23
2022-12-29T02:07:54.274Z,9.22
2022-12-29T02:10:24.221Z,9.21
2022-12-29T02:12:51.377Z,9.19
2022-12-29T02:15:18.558Z,9.17
2022-12-29T02:17:57.548Z,9.17
2022-12-29T02:20:38.865Z,9.18
2022-12-29T02:23:14.724Z,9.18
2022-12-29T02:25:53.670Z,9.18
2022-12-29T02:28:35.609Z,9.19
2022-12-29T02:31:25.332Z,9.20
2022-12-29T02:34:13.929Z,9.20
2022-12-29T02:36:59.575Z,9.20
2022-12-29T02:39:29.282Z,9.20
2022-12-29T02:42:10.129Z,9.17
2022-12-29T02:45:04.004Z,9.12
2022-12-29T02:48:13.599Z,9.11
2022-12-29T02:51:14.660Z,9.10
2022-12-29T02:54:01.955Z,9.12
2022-12-29T02:56:29.196Z,9.15
2022-12-29T02:58:55.879Z,9.13
2022-12-29T03:02:05.787Z,9.07
2022-12-29T03:05:10.111Z,8.99
2022-12-29T03:07:55.751Z,8.94
2022-12-29T03:10:39.747Z,8.94
2022-12-29T03:13:47.941Z,8.98
2022-12-29T03:16:22.374Z,8.98
2022-12-29T03:18:56.862Z,9.01
2022-12-29T03:22:00.520Z,9.04
2022-12-29T03:24:35.904Z,9.06
2022-12-29T03:27:07.600Z,9.09
2022-12-29T03:29:56.848Z,9.11
2022-12-29T03:32:29.408Z,9.12
2022-12-29T03:34:57.662Z,9.11
2022-12-29T03:37:30.704Z,9.10
2022-12-29T03:39:59.388Z,9.09
2022-12-29T03:42:30.299Z,9.09
2022-12-29T03:44:58.237Z,9.10
2022-12-29T03:47:26.125Z,9.11
2022-12-29T03:49:53.696Z,9.13
2022-12-29T03:52:21.644Z,9.12
2022-12-29T03:54:50.253Z,9.10
2022-12-29T03:57:17.125Z,9.06
2022-12-29T03:59:54.019Z,9.04
2022-12-29T04:02:20.985Z,9.06
2022-12-29T04:04:47.966Z,9.08
2022-12-29T04:07:14.753Z,9.12
2022-12-29T04:09:42.395Z,9.14
2022-12-29T04:12:12.137Z,9.18
2022-12-29T04:14:38.828Z,9.21
2022-12-29T04:17:05.508Z,9.25
2022-12-29T04:19:32.902Z,9.26
2022-12-29T04:21:59.626Z,9.26
2022-12-29T04:24:26.320Z,9.28
2022-12-29T04:26:53.202Z,9.29
2022-12-29T04:29:43.785Z,9.29
2022-12-29T04:32:24.112Z,9.29
2022-12-29T04:34:53.324Z,9.29
2022-12-29T04:37:20.064Z,9.29
2022-12-29T04:39:47.155Z,9.28
2022-12-29T04:42:14.060Z,9.28
2022-12-29T04:44:45.092Z,9.28
2022-12-29T04:47:22.460Z,9.32
2022-12-29T04:50:05.164Z,9.32
2022-12-29T04:52:40.781Z,9.32
2022-12-29T04:55:09.992Z,9.32
2022-12-29T04:57:36.966Z,9.33
2022-12-29T05:00:05.107Z,9.34
2022-12-29T05:02:32.176Z,9.33
2022-12-29T05:04:59.119Z,9.32
2022-12-29T05:07:26.348Z,9.31
2022-12-29T05:09:54.136Z,9.35
2022-12-29T05:12:21.031Z,9.38
2022-12-29T05:14:59.964Z,9.37
2022-12-29T05:17:27.289Z,9.33
2022-12-29T05:19:54.193Z,9.30
2022-12-29T05:22:21.430Z,9.29
2022-12-29T05:24:49.072Z,9.27
2022-12-29T05:27:16.236Z,9.26
2022-12-29T05:30:15.314Z,9.25
2022-12-29T05:32:42.139Z,9.28
2022-12-29T05:35:09.865Z,9.31
2022-12-29T05:37:37.908Z,9.34
2022-12-29T05:40:05.324Z,9.37
2022-12-29T05:42:32.235Z,9.41
2022-12-29T05:45:14.575Z,9.35
2022-12-29T05:48:00.098Z,9.27
2022-12-29T05:50:52.646Z,9.17
2022-12-29T05:53:24.992Z,9.09
2022-12-29T05:55:51.776Z,9.09
2022-12-29T05:58:18.845Z,9.11
2022-12-29T06:00:45.833Z,9.14
2022-12-29T06:03:13.344Z,9.14
2022-12-29T06:05:40.281Z,9.14
2022-12-29T06:08:07.166Z,9.14
2022-12-29T06:10:34.925Z,9.13
2022-12-29T06:13:08.869Z,9.15
2022-12-29T06:15:37.801Z,9.17
2022-12-29T06:18:07.405Z,9.19
2022-12-29T06:20:34.778Z,9.22
2022-12-29T06:23:04.057Z,9.24
2022-12-29T06:25:33.222Z,9.26
2022-12-29T06:28:00.285Z,9.27
2022-12-29T06:30:27.431Z,9.28
2022-12-29T06:32:55.313Z,9.24
2022-12-29T06:35:26.004Z,9.17
2022-12-29T06:37:52.887Z,9.12
2022-12-29T06:40:20.662Z,9.09
2022-12-29T06:43:20.828Z,9.09
2022-12-29T06:46:20.122Z,9.10
2022-12-29T06:48:46.950Z,9.12
2022-12-29T06:51:13.634Z,9.12
2022-12-29T06:53:40.399Z,9.13
2022-12-29T06:56:07.482Z,9.09
2022-12-29T06:58:34.163Z,9.04
2022-12-29T07:01:00.915Z,9.00
2022-12-29T07:03:27.600Z,8.97
2022-12-29T07:05:55.717Z,8.95
2022-12-29T07:08:22.414Z,8.94
2022-12-29T07:10:49.204Z,8.95
2022-12-29T07:13:15.896Z,8.95
2022-12-29T07:15:42.537Z,8.98
2022-12-29T07:18:09.297Z,9.01
2022-12-29T07:20:36.099Z,9.03
2022-12-29T07:23:03.463Z,9.01
2022-12-29T07:25:30.679Z,8.99
2022-12-29T07:27:57.487Z,8.98
2022-12-29T07:30:24.242Z,8.98
2022-12-29T07:32:50.906Z,8.98
2022-12-29T07:35:17.641Z,9.02
2022-12-29T07:37:44.506Z,9.08
2022-12-29T07:40:12.125Z,9.13
2022-12-29T07:42:38.775Z,9.16
2022-12-29T07:45:10.352Z,9.19
2022-12-29T07:47:50.266Z,9.22
2022-12-29T07:50:17.148Z,9.23
2022-12-29T07:52:44.114Z,9.25
2022-12-29T07:55:10.757Z,9.29
2022-12-29T07:57:37.526Z,9.34
2022-12-29T08:00:05.192Z,9.37
2022-12-29T08:02:38.921Z,9.41
2022-12-29T08:05:06.370Z,9.46
2022-12-29T08:07:33.056Z,9.49
2022-12-29T08:09:59.875Z,9.44
2022-12-29T08:12:26.614Z,9.38
2022-12-29T08:14:53.459Z,9.37
2022-12-29T08:17:20.133Z,9.37
2022-12-29T08:19:46.769Z,9.35
2022-12-29T08:22:15.404Z,9.31
2022-12-29T08:24:42.185Z,9.27
2022-12-29T08:27:16.232Z,9.29
2022-12-29T08:29:46.855Z,9.30
2022-12-29T08:32:13.632Z,9.33
2022-12-29T08:34:40.312Z,9.34
2022-12-29T08:37:07.172Z,9.38
2022-12-29T08:39:33.851Z,9.40
2022-12-29T08:42:00.595Z,9.40
2022-12-29T08:44:27.327Z,9.38
2022-12-29T08:46:54.108Z,9.38
2022-12-29T08:49:20.983Z,9.41
2022-12-29T08:51:47.625Z,9.43
2022-12-29T08:54:14.385Z,9.46
2022-12-29T08:56:41.208Z,9.51
2022-12-29T08:59:08.466Z,9.56
2022-12-29T09:01:37.627Z,9.61
2022-12-29T09:04:14.864Z,9.63
2022-12-29T09:06:42.572Z,9.64
2022-12-29T09:09:09.511Z,9.63
2022-12-29T09:11:36.341Z,9.64
2022-12-29T09:14:03.162Z,9.66
2022-12-29T09:16:29.912Z,9.69
2022-12-29T09:18:56.633Z,9.72
2022-12-29T09:21:23.257Z,9.75
2022-12-29T09:23:50.095Z,9.77
2022-12-29T09:26:16.816Z,9.79
2022-12-29T09:28:45.251Z,9.80
2022-12-29T09:31:12.360Z,9.80
2022-12-29T09:33:39.131Z,9.81
2022-12-29T09:36:06.153Z,9.84
2022-12-29T09:38:32.929Z,9.85
2022-12-29T09:41:08.915Z,9.85
2022-12-29T09:43:57.286Z,9.86
2022-12-29T09:46:28.403Z,9.87
2022-12-29T09:49:10.531Z,9.90
2022-12-29T09:51:41.836Z,9.91
2022-12-29T09:54:17.720Z,9.92
2022-12-29T09:56:45.541Z,9.96
2022-12-29T09:59:18.026Z,10.01
2022-12-29T10:01:58.735Z,10.07
2022-12-29T10:04:28.878Z,10.09
2022-12-29T10:07:28.718Z,9.97
2022-12-29T10:10:17.112Z,9.80
2022-12-29T10:12:59.174Z,9.69
2022-12-29T10:15:47.566Z,9.62
2022-12-29T10:18:23.742Z,9.57
2022-12-29T10:20:58.386Z,9.60
2022-12-29T10:23:30.278Z,9.66
2022-12-29T10:25:58.780Z,9.75
2022-12-29T10:28:41.216Z,9.90
2022-12-29T10:31:21.165Z,10.07
2022-12-29T10:33:54.840Z,10.23
2022-12-29T10:37:00.224Z,10.44
2022-12-29T10:39:31.859Z,10.73
2022-12-29T10:42:04.394Z,10.85
2022-12-29T10:44:32.773Z,10.87
2022-12-29T10:47:05.846Z,10.80
2022-12-29T10:49:39.567Z,10.80
2022-12-29T10:52:08.188Z,10.82
2022-12-29T10:54:45.255Z,10.79
2022-12-29T10:57:25.665Z,10.73
2022-12-29T10:59:52.321Z,10.75
2022-12-29T11:02:37.419Z,10.81
2022-12-29T11:05:14.574Z,10.84
2022-12-29T11:07:41.240Z,10.84
2022-12-29T11:10:38.103Z,10.83
2022-12-29T11:13:12.884Z,10.78
2022-12-29T11:15:45.851Z,10.73
2022-12-29T11:18:26.280Z,10.71
2022-12-29T11:21:00.585Z,10.65
2022-12-29T11:23:39.342Z,10.57
2022-12-29T11:26:11.843Z,10.54
2022-12-29T11:28:40.043Z,10.59
2022-12-29T11:31:08.068Z,10.67
2022-12-29T11:33:40.213Z,10.68
2022-12-29T11:36:12.915Z,10.67
2022-12-29T11:38:51.289Z,10.70
2022-12-29T11:41:26.807Z,10.70
2022-12-29T11:43:57.458Z,10.68
2022-12-29T11:46:29.092Z,10.65
2022-12-29T11:48:59.637Z,10.67
2022-12-29T11:51:30.295Z,10.68
2022-12-29T11:54:00.920Z,10.67
2022-12-29T11:56:40.717Z,10.66
2022-12-29T11:59:49.449Z,10.67
2022-12-29T12:02:44.172Z,10.72
2022-12-29T12:05:21.509Z,10.69
2022-12-29T12:07:55.843Z,10.65
2022-12-29T12:10:28.749Z,10.60
2022-12-29T12:13:19.135Z,10.54
2022-12-29T12:15:56.599Z,10.51
2022-12-29T12:18:38.407Z,10.51
2022-12-29T12:21:13.465Z,10.48
2022-12-29T12:23:43.280Z,10.46
2022-12-29T12:26:18.782Z,10.50
2022-12-29T12:29:01.989Z,10.55
2022-12-29T12:31:37.329Z,10.60
2022-12-29T12:34:10.026Z,10.63
2022-12-29T12:36:59.674Z,10.60
2022-12-29T12:39:48.542Z,10.54
2022-12-29T12:42:15.161Z,10.45
2022-12-29T12:45:35.501Z,10.42
2022-12-29T12:48:25.190Z,10.42
2022-12-29T12:51:23.384Z,10.46
2022-12-29T12:53:56.034Z,10.50
2022-12-29T12:56:25.791Z,10.48
2022-12-29T12:59:09.769Z,10.45
2022-12-29T13:01:40.170Z,10.46
2022-12-29T13:04:16.352Z,10.46
2022-12-29T13:07:05.967Z,10.50
2022-12-29T13:09:32.569Z,10.52
2022-12-29T13:12:02.057Z,10.51
2022-12-29T13:14:44.217Z,10.49
2022-12-29T13:17:26.785Z,10.42
2022-12-29T13:20:22.512Z,10.37
2022-12-29T13:23:11.036Z,10.31
2022-12-29T13:25:49.690Z,10.24
2022-12-29T13:28:31.638Z,10.22
2022-12-29T13:31:11.407Z,10.25
2022-12-29T13:34:02.998Z,10.29
2022-12-29T13:36:38.191Z,10.32
2022-12-29T13:39:21.593Z,10.37
2022-12-29T13:41:55.763Z,10.41
2022-12-29T13:44:33.196Z,10.42
2022-12-29T13:47:20.850Z,10.41
2022-12-29T13:49:48.885Z,10.41
2022-12-29T13:52:38.906Z,10.40
2022-12-29T13:55:47.006Z,10.40
2022-12-29T13:58:13.601Z,10.40
2022-12-29T14:00:54.645Z,10.40
2022-12-29T14:04:01.684Z,10.41
2022-12-29T14:06:35.690Z,10.42
2022-12-29T14:09:30.415Z,10.45
2022-12-29T14:12:01.953Z,10.49
2022-12-29T14:14:32.880Z,10.51
2022-12-29T14:17:17.114Z,10.50
2022-12-29T14:19:45.740Z,10.50
2022-12-29T14:22:13.665Z,10.50
2022-12-29T14:24:44.584Z,10.47
2022-12-29T14:27:11.196Z,10.46
2022-12-29T14:29:40.887Z,10.46
2022-12-29T14:32:25.810Z,10.46
2022-12-29T14:34:54.914Z,10.47
2022-12-29T14:37:32.900Z,10.48
2022-12-29T14:40:27.467Z,10.50
2022-12-29T14:42:58.435Z,10.50
2022-12-29T14:45:30.940Z,10.48
2022-12-29T14:47:58.415Z,10.45
2022-12-29T14:50:38.031Z,10.44
2022-12-29T14:53:07.359Z,10.40
2022-12-29T14:55:56.732Z,10.36
2022-12-29T14:58:29.531Z,10.35
2022-12-29T15:00:57.546Z,10.36
2022-12-29T15:03:31.395Z,10.35
2022-12-29T15:06:12.410Z,10.30
2022-12-29T15:08:49.798Z,10.25
2022-12-29T15:11:19.890Z,10.26
2022-12-29T15:13:49.603Z,10.26
2022-12-29T15:16:35.047Z,10.28
2022-12-29T15:19:01.913Z,10.29
2022-12-29T15:21:35.145Z,10.30
2022-12-29T15:24:04.117Z,10.30
2022-12-29T15:26:43.769Z,10.31
2022-12-29T15:29:56.324Z,10.32
2022-12-29T15:32:28.791Z,10.34
2022-12-29T15:34:59.303Z,10.37
2022-12-29T15:37:28.822Z,10.40
2022-12-29T15:39:57.126Z,10.43
2022-12-29T15:42:56.884Z,10.43
2022-12-29T15:45:31.051Z,10.37
2022-12-29T15:47:59.537Z,10.32
2022-12-29T15:50:36.976Z,10.26
2022-12-29T15:53:12.057Z,10.26
2022-12-29T15:55:41.076Z,10.23
2022-12-29T15:58:24.573Z,10.22
2022-12-29T16:01:02.858Z,10.23
2022-12-29T16:03:35.000Z,10.24
2022-12-29T16:06:32.562Z,10.24
2022-12-29T16:09:17.353Z,10.25
2022-12-29T16:11:57.875Z,10.27
2022-12-29T16:14:35.907Z,10.29
2022-12-29T16:17:07.618Z,10.29
2022-12-29T16:19:42.146Z,10.28
2022-12-29T16:22:18.622Z,10.28
2022-12-29T16:24:46.617Z,10.28
2022-12-29T16:27:27.632Z,10.29
2022-12-29T16:29:56.484Z,10.31
2022-12-29T16:32:33.538Z,10.33
2022-12-29T16:35:24.008Z,10.33
2022-12-29T16:38:16.976Z,10.29
2022-12-29T16:40:59.699Z,10.21
2022-12-29T16:43:32.661Z,10.16
2022-12-29T16:45:59.543Z,10.15
2022-12-29T16:48:28.910Z,10.17
2022-12-29T16:51:18.216Z,10.13
2022-12-29T16:53:54.329Z,10.04
2022-12-29T16:56:26.545Z,9.97
2022-12-29T16:59:07.549Z,9.96
2022-12-29T17:01:38.525Z,9.97
2022-12-29T17:04:14.261Z,9.99
2022-12-29T17:06:42.065Z,10.03
2022-12-29T17:09:21.971Z,10.05
2022-12-29T17:12:02.585Z,10.08
2022-12-29T17:14:52.886Z,10.11
2022-12-29T17:17:39.425Z,10.13
2022-12-29T17:20:22.443Z,10.14
2022-12-29T17:22:51.342Z,10.15
2022-12-29T17:25:21.099Z,10.19
2022-12-29T17:27:52.744Z,10.18
2022-12-29T17:30:29.671Z,10.16
2022-12-29T17:33:09.966Z,10.15
2022-12-29T17:35:37.313Z,10.13
2022-12-29T17:38:17.472Z,10.13
2022-12-29T17:40:44.466Z,10.16
2022-12-29T17:43:14.398Z,10.08
2022-12-29T17:45:42.358Z,10.00
2022-12-29T17:48:13.908Z,9.99
2022-12-29T17:50:41.288Z,10.01
2022-12-29T17:53:14.175Z,10.02
2022-12-29T17:55:42.040Z,10.02
2022-12-29T17:58:16.388Z,10.14
2022-12-29T18:00:43.504Z,10.40
2022-12-29T18:03:16.785Z,10.79
2022-12-29T18:05:44.013Z,11.29
2022-12-29T18:08:14.770Z,11.66
2022-12-29T18:10:42.272Z,12.14
2022-12-29T18:13:20.208Z,12.53
2022-12-29T18:15:47.321Z,12.84
2022-12-29T18:18:16.594Z,12.97
2022-12-29T18:20:44.508Z,12.84
2022-12-29T18:23:32.363Z,12.66
2022-12-29T18:26:04.850Z,12.50
2022-12-29T18:28:31.957Z,12.31
2022-12-29T18:31:01.223Z,12.11
2022-12-29T18:33:28.676Z,11.92
2022-12-29T18:36:05.019Z,11.75
2022-12-29T18:38:32.397Z,11.57
2022-12-29T18:40:59.428Z,11.39
2022-12-29T18:43:26.423Z,11.24
2022-12-29T18:45:53.162Z,11.11
2022-12-29T18:48:21.255Z,11.00
2022-12-29T18:50:51.137Z,10.90
2022-12-29T18:53:24.562Z,10.81
2022-12-29T18:55:52.697Z,10.74
2022-12-29T18:58:20.268Z,10.68
2022-12-29T19:00:47.564Z,10.63
2022-12-29T19:03:17.776Z,10.58
2022-12-29T19:05:46.946Z,10.56
2022-12-29T19:08:13.610Z,10.51
2022-12-29T19:10:42.080Z,10.46
2022-12-29T19:13:16.915Z,10.43
2022-12-29T19:15:46.560Z,10.44
2022-12-29T19:21:07.286Z,10.42
2022-12-29T19:23:34.291Z,10.37
2022-12-29T19:26:01.055Z,10.29
2022-12-29T19:28:29.218Z,10.25
2022-12-29T19:31:01.902Z,10.25
2022-12-29T19:33:29.650Z,10.20
2022-12-29T19:36:01.855Z,10.15
2022-12-29T19:38:29.069Z,10.11
2022-12-29T19:40:55.772Z,10.04
2022-12-29T19:43:22.558Z,9.99
2022-12-29T19:45:49.455Z,9.94
2022-12-29T19:48:18.578Z,9.92
2022-12-29T19:50:45.709Z,9.91
2022-12-29T19:53:13.115Z,9.93
2022-12-29T19:55:43.859Z,9.95
2022-12-29T19:58:10.956Z,9.92
2022-12-29T20:00:42.808Z,9.88
2022-12-29T20:03:10.021Z,9.85
2022-12-29T20:05:37.831Z,9.83
2022-12-29T20:08:04.727Z,9.82
2022-12-29T20:10:31.453Z,9.84
2022-12-29T20:12:58.250Z,9.85
2022-12-29T20:15:25.030Z,9.86
2022-12-29T20:20:38.256Z,9.94
2022-12-29T20:23:04.855Z,9.97
2022-12-29T20:25:44.862Z,9.99
2022-12-29T20:28:12.670Z,10.04
2022-12-29T20:30:39.464Z,10.08
2022-12-29T20:33:08.518Z,10.08
2022-12-29T20:35:36.781Z,10.09
2022-12-29T20:38:05.309Z,10.11
2022-12-29T20:40:32.118Z,10.13
2022-12-29T20:42:59.151Z,10.13
2022-12-29T20:45:25.923Z,10.13
2022-12-29T20:47:52.766Z,10.11
2022-12-29T20:50:19.442Z,10.12
2022-12-29T20:52:47.063Z,10.12
2022-12-29T20:55:14.809Z,10.13
2022-12-29T21:00:30.763Z,10.05
2022-12-29T21:03:01.239Z,9.93
2022-12-29T21:05:29.153Z,9.86
2022-12-29T21:07:56.346Z,9.81
2022-12-29T21:10:23.180Z,9.79
2022-12-29T21:12:49.993Z,9.79
2022-12-29T21:15:18.134Z,9.80
2022-12-29T21:17:45.451Z,9.82
2022-12-29T21:20:30.125Z,9.84
2022-12-29T21:23:00.172Z,9.87
2022-12-29T21:25:37.034Z,9.88
2022-12-29T21:28:09.179Z,9.88
2022-12-29T21:30:36.427Z,9.88
2022-12-29T21:33:03.994Z,9.91
2022-12-29T21:35:34.679Z,9.93
2022-12-29T21:38:01.312Z,9.92
2022-12-29T21:40:28.012Z,9.93
2022-12-29T21:42:54.700Z,9.94
2022-12-29T21:45:27.235Z,9.94
2022-12-29T21:48:16.359Z,9.93
2022-12-29T21:51:04.470Z,9.94
2022-12-29T21:53:40.100Z,9.88
2022-12-29T21:56:18.727Z,9.84
2022-12-29T21:59:06.920Z,9.80
2022-12-29T22:01:54.993Z,9.80
2022-12-29T22:04:43.306Z,9.78
2022-12-29T22:07:30.828Z,9.76
2022-12-29T22:10:16.125Z,9.76
2022-12-29T22:12:59.329Z,9.74
2022-12-29T22:15:28.871Z,9.78
2022-12-29T22:17:56.208Z,9.80
2022-12-29T22:20:26.961Z,9.74
2022-12-29T22:22:53.794Z,9.69
2022-12-29T22:25:20.994Z,9.67
2022-12-29T22:27:47.831Z,9.68
2022-12-29T22:30:15.457Z,9.68
2022-12-29T22:32:42.860Z,9.64
2022-12-29T22:35:11.194Z,9.59
2022-12-29T22:37:39.863Z,9.51
2022-12-29T22:40:09.694Z,9.45
2022-12-29T22:42:37.076Z,9.44
2022-12-29T22:45:04.238Z,9.45
2022-12-29T22:47:30.968Z,9.45
2022-12-29T22:49:57.791Z,9.46
2022-12-29T22:52:24.427Z,9.50
2022-12-29T22:54:51.081Z,9.56
2022-12-29T22:57:17.798Z,9.62
2022-12-29T22:59:44.680Z,9.66
2022-12-29T23:02:11.553Z,9.63
2022-12-29T23:07:25.432Z,9.63
2022-12-29T23:09:52.099Z,9.64
2022-12-29T23:12:18.830Z,9.65
2022-12-29T23:14:45.422Z,9.66
2022-12-29T23:17:12.058Z,9.65
2022-12-29T23:19:38.683Z,9.64
2022-12-29T23:22:05.359Z,9.64
2022-12-29T23:24:32.021Z,9.67
2022-12-29T23:26:58.752Z,9.70
2022-12-29T23:29:25.512Z,9.73
2022-12-29T23:31:52.199Z,9.76
2022-12-29T23:34:18.946Z,9.79
2022-12-29T23:36:46.771Z,9.81
2022-12-29T23:39:20.851Z,9.83
2022-12-29T23:41:47.562Z,9.85
2022-12-29T23:44:14.363Z,9.87
2022-12-29T23:46:41.616Z,9.87
2022-12-29T23:49:09.498Z,9.89
2022-12-29T23:51:36.299Z,9.91
2022-12-29T23:54:03.088Z,9.92
2022-12-29T23:56:30.231Z,9.91
2022-12-29T23:58:56.960Z,9.87
